sensor_id;sensor_type;location;lat;lon;timestamp;pressure;altitude;pressure_sealevel;temperature;humidity
70434;BME280;57876;47.792;12.960;2023-04-23T00:01:40;96215.47;;;14.68;51.59
70434;BME280;57876;47.792;12.960;2023-04-23T00:04:07;96216.28;;;14.69;51.12
70434;BME280;57876;47.792;12.960;2023-04-23T00:06:32;96209.56;;;14.66;51.48
70434;BME280;57876;47.792;12.960;2023-04-23T00:08:59;96215.78;;;14.67;51.57
70434;BME280;57876;47.792;12.960;2023-04-23T00:11:24;96218.50;;;14.67;51.43
70434;BME280;57876;47.792;12.960;2023-04-23T00:13:49;96211.47;;;14.66;51.79
70434;BME280;57876;47.792;12.960;2023-04-23T00:16:14;96214.66;;;14.68;51.75
70434;BME280;57876;47.792;12.960;2023-04-23T00:18:38;96204.91;;;14.67;51.53
70434;BME280;57876;47.792;12.960;2023-04-23T00:21:03;96207.63;;;14.67;51.55
70434;BME280;57876;47.792;12.960;2023-04-23T00:23:28;96206.84;;;14.66;51.70
70434;BME280;57876;47.792;12.960;2023-04-23T00:25:52;96202.19;;;14.67;51.61
70434;BME280;57876;47.792;12.960;2023-04-23T00:28:17;96205.22;;;14.65;51.40
70434;BME280;57876;47.792;12.960;2023-04-23T00:30:41;96199.78;;;14.65;51.66
70434;BME280;57876;47.792;12.960;2023-04-23T00:33:05;96205.22;;;14.65;51.59
70434;BME280;57876;47.792;12.960;2023-04-23T00:35:30;96203.63;;;14.64;51.55
70434;BME280;57876;47.792;12.960;2023-04-23T00:37:54;96205.22;;;14.65;51.49
70434;BME280;57876;47.792;12.960;2023-04-23T00:40:19;96206.84;;;14.66;51.43
70434;BME280;57876;47.792;12.960;2023-04-23T00:42:44;96215.00;;;14.66;51.54
70434;BME280;57876;47.792;12.960;2023-04-23T00:45:09;96203.63;;;14.64;51.54
70434;BME280;57876;47.792;12.960;2023-04-23T00:47:35;96211.47;;;14.66;51.43
70434;BME280;57876;47.792;12.960;2023-04-23T00:49:59;96207.16;;;14.65;51.61
70434;BME280;57876;47.792;12.960;2023-04-23T00:52:24;96200.59;;;14.66;51.43
70434;BME280;57876;47.792;12.960;2023-04-23T00:54:48;96207.94;;;14.65;51.70
70434;BME280;57876;47.792;12.960;2023-04-23T00:57:13;96204.75;;;14.63;51.59
70434;BME280;57876;47.792;12.960;2023-04-23T00:59:38;96197.41;;;14.64;51.56
70434;BME280;57876;47.792;12.960;2023-04-23T01:02:02;96206.03;;;14.66;51.64
70434;BME280;57876;47.792;12.960;2023-04-23T01:04:29;96195.47;;;14.64;51.47
70434;BME280;57876;47.792;12.960;2023-04-23T01:06:55;96198.97;;;14.65;51.73
70434;BME280;57876;47.792;12.960;2023-04-23T01:09:21;96206.34;;;14.64;51.64
70434;BME280;57876;47.792;12.960;2023-04-23T01:11:46;96198.19;;;14.64;51.44
70434;BME280;57876;47.792;12.960;2023-04-23T01:14:10;96198.97;;;14.65;51.59
70434;BME280;57876;47.792;12.960;2023-04-23T01:16:35;96207.16;;;14.65;51.55
70434;BME280;57876;47.792;12.960;2023-04-23T01:19:01;96211.47;;;14.66;51.65
70434;BME280;57876;47.792;12.960;2023-04-23T01:21:27;96208.28;;;14.64;51.62
70434;BME280;57876;47.792;12.960;2023-04-23T01:23:52;96215.97;;;14.62;51.73
70434;BME280;57876;47.792;12.960;2023-04-23T01:26:17;96214.50;;;14.64;51.55
70434;BME280;57876;47.792;12.960;2023-04-23T01:28:42;96215.66;;;14.63;51.56
70434;BME280;57876;47.792;12.960;2023-04-23T01:31:09;96214.03;;;14.62;51.53
70434;BME280;57876;47.792;12.960;2023-04-23T01:33:34;96212.59;;;14.65;51.50
70434;BME280;57876;47.792;12.960;2023-04-23T01:35:59;96219.97;;;14.64;51.35
70434;BME280;57876;47.792;12.960;2023-04-23T01:38:24;96222.69;;;14.64;51.36
70434;BME280;57876;47.792;12.960;2023-04-23T01:40:51;96225.41;;;14.64;51.59
70434;BME280;57876;47.792;12.960;2023-04-23T01:43:16;96215.97;;;14.62;51.55
70434;BME280;57876;47.792;12.960;2023-04-23T01:45:40;96224.13;;;14.62;51.62
70434;BME280;57876;47.792;12.960;2023-04-23T01:48:05;96227.66;;;14.62;51.46
70434;BME280;57876;47.792;12.960;2023-04-23T01:50:29;96219.16;;;14.64;51.69
70434;BME280;57876;47.792;12.960;2023-04-23T01:52:54;96218.38;;;14.63;51.60
70434;BME280;57876;47.792;12.960;2023-04-23T01:55:19;96221.41;;;14.62;51.56
70434;BME280;57876;47.792;12.960;2023-04-23T01:57:45;96214.38;;;14.61;51.49
70434;BME280;57876;47.792;12.960;2023-04-23T02:00:11;96228.13;;;14.64;51.59
70434;BME280;57876;47.792;12.960;2023-04-23T02:02:36;96219.16;;;14.64;51.48
70434;BME280;57876;47.792;12.960;2023-04-23T02:05:02;96215.66;;;14.63;51.49
70434;BME280;57876;47.792;12.960;2023-04-23T02:07:27;96211.78;;;14.64;51.44
70434;BME280;57876;47.792;12.960;2023-04-23T02:09:52;96225.41;;;14.64;51.68
70434;BME280;57876;47.792;12.960;2023-04-23T02:12:16;96214.38;;;14.61;51.60
70434;BME280;57876;47.792;12.960;2023-04-23T02:14:41;96213.72;;;14.64;51.48
70434;BME280;57876;47.792;12.960;2023-04-23T02:17:05;96224.59;;;14.64;51.67
70434;BME280;57876;47.792;12.960;2023-04-23T02:19:33;96209.72;;;14.61;51.58
70434;BME280;57876;47.792;12.960;2023-04-23T02:21:58;96215.16;;;14.61;51.42
70434;BME280;57876;47.792;12.960;2023-04-23T02:24:26;96223.03;;;14.63;51.60
70434;BME280;57876;47.792;12.960;2023-04-23T02:27:10;96216.75;;;14.62;51.56
70434;BME280;57876;47.792;12.960;2023-04-23T02:29:35;96208.13;;;14.60;51.25
70434;BME280;57876;47.792;12.960;2023-04-23T02:31:59;96211.00;;;14.64;51.32
70434;BME280;57876;47.792;12.960;2023-04-23T02:34:24;96204.28;;;14.61;51.75
70434;BME280;57876;47.792;12.960;2023-04-23T02:36:48;96214.38;;;14.61;51.52
70434;BME280;57876;47.792;12.960;2023-04-23T02:39:13;96207.81;;;14.62;51.65
70434;BME280;57876;47.792;12.960;2023-04-23T02:41:37;96212.44;;;14.61;51.65
70434;BME280;57876;47.792;12.960;2023-04-23T02:44:01;96205.06;;;14.62;51.44
70434;BME280;57876;47.792;12.960;2023-04-23T02:46:26;96208.94;;;14.61;51.68
70434;BME280;57876;47.792;12.960;2023-04-23T02:48:50;96207.00;;;14.61;51.56
70434;BME280;57876;47.792;12.960;2023-04-23T02:51:15;96203.97;;;14.63;51.32
70434;BME280;57876;47.792;12.960;2023-04-23T02:53:39;96199.63;;;14.62;51.53
70434;BME280;57876;47.792;12.960;2023-04-23T02:56:04;96208.59;;;14.62;51.24
70434;BME280;57876;47.792;12.960;2023-04-23T02:58:29;96197.25;;;14.60;51.51
70434;BME280;57876;47.792;12.960;2023-04-23T03:00:53;96193.72;;;14.60;51.37
70434;BME280;57876;47.792;12.960;2023-04-23T03:03:18;96201.09;;;14.59;51.41
70434;BME280;57876;47.792;12.960;2023-04-23T03:05:43;96194.53;;;14.60;51.85
70434;BME280;57876;47.792;12.960;2023-04-23T03:08:07;96198.03;;;14.61;51.62
70434;BME280;57876;47.792;12.960;2023-04-23T03:10:31;96196.91;;;14.62;51.44
70434;BME280;57876;47.792;12.960;2023-04-23T03:12:56;96197.25;;;14.60;51.71
70434;BME280;57876;47.792;12.960;2023-04-23T03:15:20;96196.44;;;14.60;51.70
70434;BME280;57876;47.792;12.960;2023-04-23T03:17:45;96201.56;;;14.61;51.23
70434;BME280;57876;47.792;12.960;2023-04-23T03:20:09;96199.16;;;14.60;51.32
70434;BME280;57876;47.792;12.960;2023-04-23T03:22:34;96200.78;;;14.61;51.27
70434;BME280;57876;47.792;12.960;2023-04-23T03:24:59;96201.88;;;14.60;51.33
70434;BME280;57876;47.792;12.960;2023-04-23T03:27:23;96209.72;;;14.61;51.68
70434;BME280;57876;47.792;12.960;2023-04-23T03:29:47;96208.13;;;14.60;51.34
70434;BME280;57876;47.792;12.960;2023-04-23T03:32:12;96202.69;;;14.60;51.64
70434;BME280;57876;47.792;12.960;2023-04-23T03:34:36;96204.59;;;14.60;51.45
70434;BME280;57876;47.792;12.960;2023-04-23T03:37:01;96206.53;;;14.59;51.34
70434;BME280;57876;47.792;12.960;2023-04-23T03:39:51;96203.50;;;14.61;51.57
70434;BME280;57876;47.792;12.960;2023-04-23T03:42:16;96203.31;;;14.57;51.46
70434;BME280;57876;47.792;12.960;2023-04-23T03:44:40;96201.88;;;14.60;51.67
70434;BME280;57876;47.792;12.960;2023-04-23T03:47:04;96204.59;;;14.60;51.50
70434;BME280;57876;47.792;12.960;2023-04-23T03:49:29;96211.97;;;14.59;51.92
70434;BME280;57876;47.792;12.960;2023-04-23T03:51:53;96205.72;;;14.59;51.67
70434;BME280;57876;47.792;12.960;2023-04-23T03:54:18;96205.41;;;14.60;51.35
70434;BME280;57876;47.792;12.960;2023-04-23T03:56:42;96210.88;;;14.60;51.62
70434;BME280;57876;47.792;12.960;2023-04-23T03:59:07;96206.53;;;14.59;51.69
70434;BME280;57876;47.792;12.960;2023-04-23T04:01:32;96204.59;;;14.60;51.55
70434;BME280;57876;47.792;12.960;2023-04-23T04:03:59;96204.16;;;14.58;51.11
70434;BME280;57876;47.792;12.960;2023-04-23T04:06:23;96203.00;;;14.59;51.60
70434;BME280;57876;47.792;12.960;2023-04-23T04:08:48;96205.72;;;14.59;51.54
70434;BME280;57876;47.792;12.960;2023-04-23T04:11:12;96201.09;;;14.59;51.13
70434;BME280;57876;47.792;12.960;2023-04-23T04:13:37;96194.06;;;14.58;51.41
70434;BME280;57876;47.792;12.960;2023-04-23T04:16:01;96204.94;;;14.58;51.51
70434;BME280;57876;47.792;12.960;2023-04-23T04:18:25;96203.00;;;14.59;51.32
70434;BME280;57876;47.792;12.960;2023-04-23T04:20:50;96208.75;;;14.57;51.52
70434;BME280;57876;47.792;12.960;2023-04-23T04:23:15;96206.88;;;14.58;51.50
70434;BME280;57876;47.792;12.960;2023-04-23T04:25:39;96208.44;;;14.59;51.34
70434;BME280;57876;47.792;12.960;2023-04-23T04:28:05;96218.19;;;14.60;51.44
70434;BME280;57876;47.792;12.960;2023-04-23T04:30:31;96222.84;;;14.59;51.31
70434;BME280;57876;47.792;12.960;2023-04-23T04:32:55;96217.41;;;14.59;51.60
70434;BME280;57876;47.792;12.960;2023-04-23T04:35:19;96210.38;;;14.58;51.58
70434;BME280;57876;47.792;12.960;2023-04-23T04:37:44;96215.81;;;14.58;51.56
70434;BME280;57876;47.792;12.960;2023-04-23T04:40:08;96215.81;;;14.58;51.43
70434;BME280;57876;47.792;12.960;2023-04-23T04:42:36;96217.41;;;14.59;51.59
70434;BME280;57876;47.792;12.960;2023-04-23T04:45:00;96209.59;;;14.58;51.72
70434;BME280;57876;47.792;12.960;2023-04-23T04:47:25;96207.66;;;14.58;51.47
70434;BME280;57876;47.792;12.960;2023-04-23T04:49:49;96209.72;;;14.61;51.48
70434;BME280;57876;47.792;12.960;2023-04-23T04:52:13;96214.69;;;14.59;51.47
70434;BME280;57876;47.792;12.960;2023-04-23T04:54:38;96209.25;;;14.59;51.32
70434;BME280;57876;47.792;12.960;2023-04-23T04:57:03;96211.97;;;14.59;51.03
70434;BME280;57876;47.792;12.960;2023-04-23T04:59:28;96214.38;;;14.61;51.48
70434;BME280;57876;47.792;12.960;2023-04-23T05:01:52;96217.75;;;14.58;51.43
70434;BME280;57876;47.792;12.960;2023-04-23T05:04:17;96218.53;;;14.58;51.77
70434;BME280;57876;47.792;12.960;2023-04-23T05:06:41;96222.84;;;14.59;51.62
70434;BME280;57876;47.792;12.960;2023-04-23T05:09:06;96226.06;;;14.61;51.38
70434;BME280;57876;47.792;12.960;2023-04-23T05:11:31;96226.38;;;14.60;51.90
70434;BME280;57876;47.792;12.960;2023-04-23T05:13:56;96231.03;;;14.59;51.63
70434;BME280;57876;47.792;12.960;2023-04-23T05:16:20;96225.25;;;14.61;51.42
70434;BME280;57876;47.792;12.960;2023-04-23T05:18:44;96222.84;;;14.59;51.62
70434;BME280;57876;47.792;12.960;2023-04-23T05:21:09;96222.06;;;14.59;51.11
70434;BME280;57876;47.792;12.960;2023-04-23T05:23:35;96222.84;;;14.59;51.43
70434;BME280;57876;47.792;12.960;2023-04-23T05:25:59;96227.81;;;14.57;51.61
70434;BME280;57876;47.792;12.960;2023-04-23T05:28:27;96230.22;;;14.59;51.54
70434;BME280;57876;47.792;12.960;2023-04-23T05:30:51;96236.47;;;14.59;51.45
70434;BME280;57876;47.792;12.960;2023-04-23T05:33:16;96233.75;;;14.59;51.27
70434;BME280;57876;47.792;12.960;2023-04-23T05:35:41;96232.16;;;14.58;51.33
70434;BME280;57876;47.792;12.960;2023-04-23T05:38:05;96232.94;;;14.59;51.51
70434;BME280;57876;47.792;12.960;2023-04-23T05:40:30;96235.34;;;14.60;51.43
70434;BME280;57876;47.792;12.960;2023-04-23T05:42:57;96239.97;;;14.60;51.42
70434;BME280;57876;47.792;12.960;2023-04-23T05:45:24;96242.38;;;14.61;51.15
70434;BME280;57876;47.792;12.960;2023-04-23T05:47:49;96238.38;;;14.59;51.49
70434;BME280;57876;47.792;12.960;2023-04-23T05:50:14;96240.78;;;14.60;51.41
70434;BME280;57876;47.792;12.960;2023-04-23T05:52:41;96243.53;;;14.60;51.70
70434;BME280;57876;47.792;12.960;2023-04-23T05:55:06;96237.25;;;14.60;51.47
70434;BME280;57876;47.792;12.960;2023-04-23T05:57:32;96246.25;;;14.60;51.40
70434;BME280;57876;47.792;12.960;2023-04-23T05:59:57;96253.28;;;14.61;51.34
70434;BME280;57876;47.792;12.960;2023-04-23T06:02:21;96247.81;;;14.61;51.57
70434;BME280;57876;47.792;12.960;2023-04-23T06:04:48;96250.06;;;14.59;51.55
70434;BME280;57876;47.792;12.960;2023-04-23T06:07:12;96247.03;;;14.61;51.55
70434;BME280;57876;47.792;12.960;2023-04-23T06:09:38;96253.28;;;14.61;51.32
70434;BME280;57876;47.792;12.960;2023-04-23T06:12:02;96258.72;;;14.61;51.49
70434;BME280;57876;47.792;12.960;2023-04-23T06:14:27;96256.31;;;14.60;51.41
70434;BME280;57876;47.792;12.960;2023-04-23T06:16:51;96251.34;;;14.62;51.52
70434;BME280;57876;47.792;12.960;2023-04-23T06:19:15;96251.69;;;14.60;51.25
70434;BME280;57876;47.792;12.960;2023-04-23T06:21:40;96254.06;;;14.62;51.43
70434;BME280;57876;47.792;12.960;2023-04-23T06:24:05;96257.13;;;14.60;51.49
70434;BME280;57876;47.792;12.960;2023-04-23T06:26:31;96251.19;;;14.58;51.34
70434;BME280;57876;47.792;12.960;2023-04-23T06:28:55;96252.78;;;14.59;51.37
70434;BME280;57876;47.792;12.960;2023-04-23T06:31:20;96254.41;;;14.60;51.49
70434;BME280;57876;47.792;12.960;2023-04-23T06:33:44;96262.56;;;14.60;51.36
70434;BME280;57876;47.792;12.960;2023-04-23T06:36:09;96264.63;;;14.63;51.49
70434;BME280;57876;47.792;12.960;2023-04-23T06:38:34;96265.28;;;14.60;51.25
70434;BME280;57876;47.792;12.960;2023-04-23T06:40:58;96272.31;;;14.61;51.63
70434;BME280;57876;47.792;12.960;2023-04-23T06:43:23;96277.44;;;14.63;51.52
70434;BME280;57876;47.792;12.960;2023-04-23T06:45:47;96268.81;;;14.61;51.25
70434;BME280;57876;47.792;12.960;2023-04-23T06:48:12;96271.66;;;14.64;51.39
70434;BME280;57876;47.792;12.960;2023-04-23T06:50:37;96267.34;;;14.63;51.37
70434;BME280;57876;47.792;12.960;2023-04-23T06:53:02;96271.19;;;14.62;51.43
70434;BME280;57876;47.792;12.960;2023-04-23T06:55:27;96268.00;;;14.60;51.49
70434;BME280;57876;47.792;12.960;2023-04-23T06:57:54;96273.13;;;14.62;51.17
70434;BME280;57876;47.792;12.960;2023-04-23T07:00:20;96276.63;;;14.62;51.73
70434;BME280;57876;47.792;12.960;2023-04-23T07:02:45;96270.09;;;14.63;51.42
70434;BME280;57876;47.792;12.960;2023-04-23T07:05:10;96264.94;;;14.62;51.51
70434;BME280;57876;47.792;12.960;2023-04-23T07:07:34;96266.88;;;14.61;51.39
70434;BME280;57876;47.792;12.960;2023-04-23T07:10:01;96266.88;;;14.61;51.54
70434;BME280;57876;47.792;12.960;2023-04-23T07:12:27;96266.22;;;14.64;51.46
70434;BME280;57876;47.792;12.960;2023-04-23T07:14:51;96267.34;;;14.63;51.24
70434;BME280;57876;47.792;12.960;2023-04-23T07:17:17;96263.84;;;14.63;51.54
70434;BME280;57876;47.792;12.960;2023-04-23T07:19:41;96268.16;;;14.64;51.48
70434;BME280;57876;47.792;12.960;2023-04-23T07:22:06;96265.75;;;14.62;51.31
70434;BME280;57876;47.792;12.960;2023-04-23T07:24:30;96274.72;;;14.63;51.58
70434;BME280;57876;47.792;12.960;2023-04-23T07:26:55;96269.28;;;14.63;51.69
70434;BME280;57876;47.792;12.960;2023-04-23T07:29:19;96264.94;;;14.62;51.25
70434;BME280;57876;47.792;12.960;2023-04-23T07:31:44;96269.59;;;14.61;51.33
70434;BME280;57876;47.792;12.960;2023-04-23T07:34:09;96270.09;;;14.63;51.50
70434;BME280;57876;47.792;12.960;2023-04-23T07:36:34;96272.31;;;14.61;51.40
70434;BME280;57876;47.792;12.960;2023-04-23T07:38:58;96271.19;;;14.62;51.24
70434;BME280;57876;47.792;12.960;2023-04-23T07:41:23;96270.09;;;14.63;51.48
70434;BME280;57876;47.792;12.960;2023-04-23T07:43:48;96263.38;;;14.61;51.27
70434;BME280;57876;47.792;12.960;2023-04-23T07:46:12;96270.41;;;14.62;51.41
70434;BME280;57876;47.792;12.960;2023-04-23T07:48:37;96268.00;;;14.60;51.45
70434;BME280;57876;47.792;12.960;2023-04-23T07:51:02;96264.94;;;14.62;51.66
70434;BME280;57876;47.792;12.960;2023-04-23T07:53:33;96267.81;;;14.65;51.50
70434;BME280;57876;47.792;12.960;2023-04-23T07:55:58;96265.75;;;14.62;51.19
70434;BME280;57876;47.792;12.960;2023-04-23T07:58:23;96270.72;;;14.60;51.31
70434;BME280;57876;47.792;12.960;2023-04-23T08:00:48;96278.25;;;14.63;51.49
70434;BME280;57876;47.792;12.960;2023-04-23T08:03:13;96279.69;;;14.61;51.39
70434;BME280;57876;47.792;12.960;2023-04-23T08:05:38;96284.78;;;14.62;51.64
70434;BME280;57876;47.792;12.960;2023-04-23T08:08:04;96287.50;;;14.62;51.35
70434;BME280;57876;47.792;12.960;2023-04-23T08:10:28;96284.34;;;14.60;51.63
70434;BME280;57876;47.792;12.960;2023-04-23T08:12:53;96285.28;;;14.64;51.41
70434;BME280;57876;47.792;12.960;2023-04-23T08:15:35;96287.50;;;14.62;51.42
70434;BME280;57876;47.792;12.960;2023-04-23T08:18:02;96282.06;;;14.62;51.30
70434;BME280;57876;47.792;12.960;2023-04-23T08:20:27;96289.94;;;14.64;51.41
70434;BME280;57876;47.792;12.960;2023-04-23T08:22:57;96282.06;;;14.62;51.43
70434;BME280;57876;47.792;12.960;2023-04-23T08:25:46;96279.69;;;14.61;51.43
70434;BME280;57876;47.792;12.960;2023-04-23T08:28:14;96278.25;;;14.63;51.32
70434;BME280;57876;47.792;12.960;2023-04-23T08:30:39;96288.34;;;14.63;51.36
70434;BME280;57876;47.792;12.960;2023-04-23T08:33:03;96289.13;;;14.63;51.60
70434;BME280;57876;47.792;12.960;2023-04-23T08:35:28;96293.44;;;14.64;51.29
70434;BME280;57876;47.792;12.960;2023-04-23T08:37:55;96294.56;;;14.63;51.71
70434;BME280;57876;47.792;12.960;2023-04-23T08:41:05;96295.22;;;14.60;51.22
70434;BME280;57876;47.792;12.960;2023-04-23T08:44:37;96302.25;;;14.61;51.46
70434;BME280;57876;47.792;12.960;2023-04-23T08:47:53;96290.25;;;14.62;51.35
70434;BME280;57876;47.792;12.960;2023-04-23T08:50:33;96296.50;;;14.63;51.46
70434;BME280;57876;47.792;12.960;2023-04-23T08:53:03;96300.03;;;14.63;51.22
70434;BME280;57876;47.792;12.960;2023-04-23T08:55:33;96289.78;;;14.60;51.39
70434;BME280;57876;47.792;12.960;2023-04-23T08:58:04;96288.66;;;14.61;51.20
70434;BME280;57876;47.792;12.960;2023-04-23T09:00:29;96282.06;;;14.62;51.41
70434;BME280;57876;47.792;12.960;2023-04-23T09:03:20;96284.34;;;14.60;51.75
70434;BME280;57876;47.792;12.960;2023-04-23T09:06:00;96287.84;;;14.61;51.24
70434;BME280;57876;47.792;12.960;2023-04-23T09:08:25;96287.50;;;14.62;51.48
70434;BME280;57876;47.792;12.960;2023-04-23T09:10:53;96295.38;;;14.64;51.24
70434;BME280;57876;47.792;12.960;2023-04-23T09:13:44;96299.69;;;14.65;51.44
70434;BME280;57876;47.792;12.960;2023-04-23T09:16:09;96289.94;;;14.64;51.14
70434;BME280;57876;47.792;12.960;2023-04-23T09:18:34;96289.94;;;14.64;51.28
70434;BME280;57876;47.792;12.960;2023-04-23T09:21:00;96279.84;;;14.64;51.40
70434;BME280;57876;47.792;12.960;2023-04-23T09:23:27;96277.91;;;14.65;51.46
70434;BME280;57876;47.792;12.960;2023-04-23T09:25:52;96274.38;;;14.64;51.55
70434;BME280;57876;47.792;12.960;2023-04-23T09:28:19;96268.94;;;14.64;51.48
70434;BME280;57876;47.792;12.960;2023-04-23T09:31:07;96271.66;;;14.64;51.40
70434;BME280;57876;47.792;12.960;2023-04-23T09:33:33;96262.72;;;14.64;51.36
70434;BME280;57876;47.792;12.960;2023-04-23T09:36:04;96263.19;;;14.66;51.43
70434;BME280;57876;47.792;12.960;2023-04-23T09:38:33;96252.97;;;14.63;51.38
70434;BME280;57876;47.792;12.960;2023-04-23T09:40:57;96255.34;;;14.64;51.50
70434;BME280;57876;47.792;12.960;2023-04-23T09:43:21;96254.19;;;14.65;51.14
70434;BME280;57876;47.792;12.960;2023-04-23T09:45:48;96246.38;;;14.64;51.48
70434;BME280;57876;47.792;12.960;2023-04-23T09:48:15;96256.94;;;14.74;51.39
70434;BME280;57876;47.792;12.960;2023-04-23T09:50:39;96253.50;;;14.86;51.30
70434;BME280;57876;47.792;12.960;2023-04-23T09:53:06;96256.84;;;14.91;51.50
70434;BME280;57876;47.792;12.960;2023-04-23T09:55:37;96252.50;;;14.99;51.75
70434;BME280;57876;47.792;12.960;2023-04-23T09:58:03;96247.34;;;15.06;51.63
70434;BME280;57876;47.792;12.960;2023-04-23T10:00:32;96251.19;;;15.14;51.39
70434;BME280;57876;47.792;12.960;2023-04-23T10:03:05;96238.34;;;15.14;51.83
70434;BME280;57876;47.792;12.960;2023-04-23T10:05:40;96233.03;;;15.18;51.88
70434;BME280;57876;47.792;12.960;2023-04-23T10:08:08;96229.47;;;15.26;51.98
70434;BME280;57876;47.792;12.960;2023-04-23T10:10:34;96236.66;;;15.31;51.60
70434;BME280;57876;47.792;12.960;2023-04-23T10:12:59;96228.16;;;15.32;51.98
70434;BME280;57876;47.792;12.960;2023-04-23T10:15:29;96226.72;;;15.35;51.90
70434;BME280;57876;47.792;12.960;2023-04-23T10:17:54;96220.13;;;15.36;51.92
70434;BME280;57876;47.792;12.960;2023-04-23T10:20:20;96222.97;;;15.39;51.91
70434;BME280;57876;47.792;12.960;2023-04-23T10:22:48;96223.13;;;15.43;51.96
70434;BME280;57876;47.792;12.960;2023-04-23T10:25:13;96214.63;;;15.45;52.11
70434;BME280;57876;47.792;12.960;2023-04-23T10:27:44;96208.38;;;15.44;52.35
70434;BME280;57876;47.792;12.960;2023-04-23T10:30:11;96209.31;;;15.48;52.08
70434;BME280;57876;47.792;12.960;2023-04-23T10:32:38;96205.47;;;15.49;52.04
70434;BME280;57876;47.792;12.960;2023-04-23T10:35:03;96190.69;;;15.50;52.13
70434;BME280;57876;47.792;12.960;2023-04-23T10:37:31;96197.75;;;15.51;52.25
70434;BME280;57876;47.792;12.960;2023-04-23T10:43:44;96189.22;;;15.53;52.14
70434;BME280;57876;47.792;12.960;2023-04-23T10:46:30;96192.22;;;15.60;52.76
70434;BME280;57876;47.792;12.960;2023-04-23T10:49:12;96188.25;;;15.57;52.15
70434;BME280;57876;47.792;12.960;2023-04-23T10:55:04;96171.81;;;15.45;52.44
70434;BME280;57876;47.792;12.960;2023-04-23T10:57:35;96166.56;;;15.40;52.31
70434;BME280;57876;47.792;12.960;2023-04-23T11:00:14;96175.38;;;15.37;52.51
70434;BME280;57876;47.792;12.960;2023-04-23T11:02:48;96161.16;;;15.31;52.62
70434;BME280;57876;47.792;12.960;2023-04-23T11:05:14;96154.81;;;15.27;52.48
70434;BME280;57876;47.792;12.960;2023-04-23T11:07:41;96155.91;;;15.26;52.39
70434;BME280;57876;47.792;12.960;2023-04-23T11:10:24;96153.06;;;15.23;52.42
70434;BME280;57876;47.792;12.960;2023-04-23T11:12:49;96143.31;;;15.22;52.60
70434;BME280;57876;47.792;12.960;2023-04-23T11:15:15;96134.19;;;15.17;52.61
70434;BME280;57876;47.792;12.960;2023-04-23T11:20:19;96126.34;;;15.16;52.58
70434;BME280;57876;47.792;12.960;2023-04-23T11:22:52;96125.41;;;15.12;52.46
70434;BME280;57876;47.792;12.960;2023-04-23T11:25:27;96126.19;;;15.12;52.47
70434;BME280;57876;47.792;12.960;2023-04-23T11:27:55;96117.56;;;15.10;52.46
70434;BME280;57876;47.792;12.960;2023-04-23T11:30:24;96122.38;;;15.13;52.70
70434;BME280;57876;47.792;12.960;2023-04-23T11:32:51;96113.72;;;15.11;52.49
70434;BME280;57876;47.792;12.960;2023-04-23T11:35:25;96110.84;;;15.08;52.40
70434;BME280;57876;47.792;12.960;2023-04-23T11:37:52;96115.97;;;15.09;52.35
70434;BME280;57876;47.792;12.960;2023-04-23T11:40:21;96111.19;;;15.06;52.58
70434;BME280;57876;47.792;12.960;2023-04-23T11:42:50;96102.22;;;15.06;52.35
70434;BME280;57876;47.792;12.960;2023-04-23T11:47:51;96097.88;;;15.05;52.31
70434;BME280;57876;47.792;12.960;2023-04-23T11:50:31;96100.28;;;15.06;52.34
70434;BME280;57876;47.792;12.960;2023-04-23T11:53:03;96086.22;;;15.04;52.09
70434;BME280;57876;47.792;12.960;2023-04-23T11:55:31;96082.69;;;15.04;52.45
70434;BME280;57876;47.792;12.960;2023-04-23T11:57:56;96077.25;;;15.04;52.51
70434;BME280;57876;47.792;12.960;2023-04-23T12:00:30;96065.88;;;15.02;52.52
70434;BME280;57876;47.792;12.960;2023-04-23T12:02:59;96062.84;;;15.03;52.35
70434;BME280;57876;47.792;12.960;2023-04-23T12:05:35;96052.25;;;15.02;52.33
70434;BME280;57876;47.792;12.960;2023-04-23T12:08:20;96048.75;;;15.01;52.38
70434;BME280;57876;47.792;12.960;2023-04-23T12:13:30;96040.09;;;14.99;52.43
70434;BME280;57876;47.792;12.960;2023-04-23T12:15:58;96042.84;;;14.99;52.35
70434;BME280;57876;47.792;12.960;2023-04-23T12:18:30;96043.97;;;14.98;52.49
70434;BME280;57876;47.792;12.960;2023-04-23T12:21:13;96039.31;;;14.98;52.40
70434;BME280;57876;47.792;12.960;2023-04-23T12:23:39;96034.66;;;14.99;52.40
70434;BME280;57876;47.792;12.960;2023-04-23T12:26:09;96031.94;;;14.99;52.38
70434;BME280;57876;47.792;12.960;2023-04-23T12:28:53;96024.13;;;14.97;52.35
70434;BME280;57876;47.792;12.960;2023-04-23T12:31:25;96024.91;;;14.98;52.30
70434;BME280;57876;47.792;12.960;2023-04-23T12:34:05;96015.13;;;14.97;52.26
70434;BME280;57876;47.792;12.960;2023-04-23T12:36:34;96013.53;;;14.96;52.38
70434;BME280;57876;47.792;12.960;2023-04-23T12:39:18;96017.13;;;15.09;52.54
70434;BME280;57876;47.792;12.960;2023-04-23T12:41:42;96008.09;;;15.17;52.22
70434;BME280;57876;47.792;12.960;2023-04-23T12:44:07;96005.16;;;15.22;52.55
70434;BME280;57876;47.792;12.960;2023-04-23T12:46:34;95999.72;;;15.22;52.56
70434;BME280;57876;47.792;12.960;2023-04-23T12:48:59;96004.38;;;15.22;52.28
70434;BME280;57876;47.792;12.960;2023-04-23T12:51:29;95994.13;;;15.18;52.57
70434;BME280;57876;47.792;12.960;2023-04-23T12:53:53;95998.66;;;15.14;52.24
70434;BME280;57876;47.792;12.960;2023-04-23T12:56:21;95993.22;;;15.14;52.55
70434;BME280;57876;47.792;12.960;2023-04-23T12:58:45;95982.63;;;15.13;52.45
70434;BME280;57876;47.792;12.960;2023-04-23T13:01:10;95986.81;;;15.10;52.49
70434;BME280;57876;47.792;12.960;2023-04-23T13:03:35;95971.16;;;15.07;52.68
70434;BME280;57876;47.792;12.960;2023-04-23T13:06:00;95971.34;;;15.23;52.37